sensor_id;sensor_type;location;lat;lon;timestamp;pressure;altitude;pressure_sealevel;temperature;humidity
5062;BME280;2351;50.812;12.872;2024-03-17T00:01:00;98567.06;;;1.69;100.00
5062;BME280;2351;50.812;12.872;2024-03-17T00:03:32;98567.19;;;1.65;100.00
5062;BME280;2351;50.812;12.872;2024-03-17T00:06:03;98569.00;;;1.63;100.00
5062;BME280;2351;50.812;12.872;2024-03-17T00:08:35;98577.69;;;1.64;100.00
5062;BME280;2351;50.812;12.872;2024-03-17T00:11:05;98576.91;;;1.62;100.00
5062;BME280;2351;50.812;12.872;2024-03-17T00:13:38;98572.53;;;1.62;100.00
5062;BME280;2351;50.812;12.872;2024-03-17T00:16:10;98579.44;;;1.63;100.00
5062;BME280;2351;50.812;12.872;2024-03-17T00:18:41;98581.03;;;1.68;100.00
5062;BME280;2351;50.812;12.872;2024-03-17T00:21:12;98567.78;;;1.72;100.00
5062;BME280;2351;50.812;12.872;2024-03-17T00:23:43;98573.59;;;1.79;100.00
5062;BME280;2351;50.812;12.872;2024-03-17T00:26:15;98572.56;;;1.83;100.00
5062;BME280;2351;50.812;12.872;2024-03-17T00:28:47;98568.88;;;1.89;100.00
5062;BME280;2351;50.812;12.872;2024-03-17T00:31:21;98566.22;;;1.90;100.00
5062;BME280;2351;50.812;12.872;2024-03-17T00:33:52;98563.63;;;1.89;100.00
5062;BME280;2351;50.812;12.872;2024-03-17T00:36:24;98567.03;;;1.91;100.00
5062;BME280;2351;50.812;12.872;2024-03-17T00:38:54;98567.94;;;1.90;100.00
5062;BME280;2351;50.812;12.872;2024-03-17T00:41:26;98575.78;;;1.90;100.00
5062;BME280;2351;50.812;12.872;2024-03-17T00:43:58;98573.00;;;1.94;100.00
5062;BME280;2351;50.812;12.872;2024-03-17T00:46:31;98572.94;;;1.96;100.00
5062;BME280;2351;50.812;12.872;2024-03-17T00:49:01;98569.38;;;1.99;100.00
5062;BME280;2351;50.812;12.872;2024-03-17T00:51:33;98564.06;;;2.00;100.00
5062;BME280;2351;50.812;12.872;2024-03-17T00:54:04;98565.75;;;2.01;100.00
5062;BME280;2351;50.812;12.872;2024-03-17T00:56:36;98564.91;;;2.01;100.00
5062;BME280;2351;50.812;12.872;2024-03-17T00:59:08;98563.16;;;2.01;100.00
5062;BME280;2351;50.812;12.872;2024-03-17T01:01:39;98561.38;;;2.02;100.00
5062;BME280;2351;50.812;12.872;2024-03-17T01:04:10;98562.25;;;2.02;100.00
5062;BME280;2351;50.812;12.872;2024-03-17T01:06:42;98565.75;;;2.01;100.00
5062;BME280;2351;50.812;12.872;2024-03-17T01:09:12;98557.16;;;1.99;100.00
5062;BME280;2351;50.812;12.872;2024-03-17T01:11:45;98564.97;;;1.99;100.00
5062;BME280;2351;50.812;12.872;2024-03-17T01:14:17;98558.91;;;1.99;100.00
5062;BME280;2351;50.812;12.872;2024-03-17T01:16:50;98564.06;;;2.00;100.00
5062;BME280;2351;50.812;12.872;2024-03-17T01:19:21;98555.31;;;2.01;100.00
5062;BME280;2351;50.812;12.872;2024-03-17T01:21:53;98560.53;;;2.01;100.00
5062;BME280;2351;50.812;12.872;2024-03-17T01:24:23;98561.34;;;2.03;100.00
5062;BME280;2351;50.812;12.872;2024-03-17T01:26:56;98561.34;;;2.03;100.00
5062;BME280;2351;50.812;12.872;2024-03-17T01:29:28;98558.75;;;2.02;100.00
5062;BME280;2351;50.812;12.872;2024-03-17T01:31:59;98570.19;;;1.99;100.00
5062;BME280;2351;50.812;12.872;2024-03-17T01:34:30;98558.91;;;1.99;100.00
5062;BME280;2351;50.812;12.872;2024-03-17T01:37:02;98557.28;;;1.96;100.00
5062;BME280;2351;50.812;12.872;2024-03-17T01:39:32;98558.25;;;1.93;100.00
5062;BME280;2351;50.812;12.872;2024-03-17T01:42:05;98565.34;;;1.90;100.00
5062;BME280;2351;50.812;12.872;2024-03-17T01:44:37;98563.78;;;1.86;100.00
5062;BME280;2351;50.812;12.872;2024-03-17T01:47:09;98558.69;;;1.83;100.00
5062;BME280;2351;50.812;12.872;2024-03-17T01:49:40;98555.41;;;1.77;100.00
5062;BME280;2351;50.812;12.872;2024-03-17T01:52:11;98555.53;;;1.74;100.00
5062;BME280;2351;50.812;12.872;2024-03-17T01:54:43;98553.03;;;1.71;100.00
5062;BME280;2351;50.812;12.872;2024-03-17T01:57:16;98560.06;;;1.69;100.00
5062;BME280;2351;50.812;12.872;2024-03-17T01:59:49;98551.53;;;1.65;100.00
5062;BME280;2351;50.812;12.872;2024-03-17T02:02:20;98556.81;;;1.64;100.00
5062;BME280;2351;50.812;12.872;2024-03-17T02:04:51;98556.16;;;1.59;100.00
5062;BME280;2351;50.812;12.872;2024-03-17T02:07:23;98557.97;;;1.57;100.00
5062;BME280;2351;50.812;12.872;2024-03-17T02:09:56;98556.38;;;1.53;100.00
5062;BME280;2351;50.812;12.872;2024-03-17T02:12:27;98560.94;;;1.47;100.00
5062;BME280;2351;50.812;12.872;2024-03-17T02:15:01;98559.19;;;1.48;100.00
5062;BME280;2351;50.812;12.872;2024-03-17T02:17:36;98554.91;;;1.45;100.00
5062;BME280;2351;50.812;12.872;2024-03-17T02:20:08;98564.72;;;1.40;100.00
5062;BME280;2351;50.812;12.872;2024-03-17T02:22:43;98560.44;;;1.38;100.00
5062;BME280;2351;50.812;12.872;2024-03-17T02:25:15;98564.72;;;1.40;100.00
5062;BME280;2351;50.812;12.872;2024-03-17T02:27:45;98560.28;;;1.42;100.00
5062;BME280;2351;50.812;12.872;2024-03-17T02:30:17;98560.94;;;1.47;100.00
5062;BME280;2351;50.812;12.872;2024-03-17T02:32:51;98557.38;;;1.50;100.00
5062;BME280;2351;50.812;12.872;2024-03-17T02:35:23;98552.88;;;1.54;100.00
5062;BME280;2351;50.812;12.872;2024-03-17T02:37:56;98555.34;;;1.57;100.00
5062;BME280;2351;50.812;12.872;2024-03-17T02:40:28;98553.53;;;1.59;100.00
5062;BME280;2351;50.812;12.872;2024-03-17T02:42:59;98546.44;;;1.62;100.00
5062;BME280;2351;50.812;12.872;2024-03-17T02:45:31;98552.44;;;1.64;100.00
5062;BME280;2351;50.812;12.872;2024-03-17T02:48:03;98545.47;;;1.65;100.00
5062;BME280;2351;50.812;12.872;2024-03-17T02:50:36;98554.16;;;1.65;100.00
5062;BME280;2351;50.812;12.872;2024-03-17T02:53:09;98549.72;;;1.68;100.00
5062;BME280;2351;50.812;12.872;2024-03-17T02:55:41;98551.41;;;1.69;100.00
5062;BME280;2351;50.812;12.872;2024-03-17T02:58:13;98549.63;;;1.69;100.00
5062;BME280;2351;50.812;12.872;2024-03-17T03:00:44;98541.69;;;1.72;100.00
5062;BME280;2351;50.812;12.872;2024-03-17T03:03:16;98547.78;;;1.73;100.00
5062;BME280;2351;50.812;12.872;2024-03-17T03:05:48;98553.84;;;1.73;100.00
5062;BME280;2351;50.812;12.872;2024-03-17T03:08:21;98541.69;;;1.72;100.00
5062;BME280;2351;50.812;12.872;2024-03-17T03:10:53;98548.63;;;1.73;100.00
5062;BME280;2351;50.812;12.872;2024-03-17T03:13:24;98552.91;;;1.74;100.00
5062;BME280;2351;50.812;12.872;2024-03-17T03:15:56;98549.47;;;1.74;100.00
5062;BME280;2351;50.812;12.872;2024-03-17T03:18:28;98552.00;;;1.75;100.00
5062;BME280;2351;50.812;12.872;2024-03-17T03:21:00;98554.50;;;1.78;100.00
5062;BME280;2351;50.812;12.872;2024-03-17T03:23:33;98552.72;;;1.79;100.00
5062;BME280;2351;50.812;12.872;2024-03-17T03:26:05;98553.59;;;1.79;100.00
5062;BME280;2351;50.812;12.872;2024-03-17T03:28:39;98549.19;;;1.80;100.00
5062;BME280;2351;50.812;12.872;2024-03-17T03:31:11;98543.06;;;1.81;100.00
5062;BME280;2351;50.812;12.872;2024-03-17T03:33:44;98537.81;;;1.83;100.00
5062;BME280;2351;50.812;12.872;2024-03-17T03:36:16;98545.56;;;1.84;100.00
5062;BME280;2351;50.812;12.872;2024-03-17T03:38:49;98536.91;;;1.84;100.00
5062;BME280;2351;50.812;12.872;2024-03-17T03:41:23;98541.25;;;1.83;100.00
5062;BME280;2351;50.812;12.872;2024-03-17T03:43:55;98530.88;;;1.82;100.00
5062;BME280;2351;50.812;12.872;2024-03-17T03:46:26;98543.06;;;1.81;100.00
5062;BME280;2351;50.812;12.872;2024-03-17T03:48:58;98539.69;;;1.79;100.00
5062;BME280;2351;50.812;12.872;2024-03-17T03:51:30;98544.19;;;1.75;100.00
5062;BME280;2351;50.812;12.872;2024-03-17T03:54:03;98546.78;;;1.75;100.00
5062;BME280;2351;50.812;12.872;2024-03-17T03:56:36;98548.72;;;1.70;100.00
5062;BME280;2351;50.812;12.872;2024-03-17T03:59:08;98545.47;;;1.65;100.00
5062;BME280;2351;50.812;12.872;2024-03-17T04:01:40;98558.66;;;1.62;100.00
5062;BME280;2351;50.812;12.872;2024-03-17T04:04:11;98552.75;;;1.57;100.00
5062;BME280;2351;50.812;12.872;2024-03-17T04:06:43;98560.63;;;1.55;100.00
5062;BME280;2351;50.812;12.872;2024-03-17T04:09:16;98556.38;;;1.53;100.00
5062;BME280;2351;50.812;12.872;2024-03-17T04:11:49;98553.72;;;1.54;100.00
5062;BME280;2351;50.812;12.872;2024-03-17T04:14:20;98551.06;;;1.56;100.00
5062;BME280;2351;50.812;12.872;2024-03-17T04:16:52;98544.00;;;1.58;100.00
5062;BME280;2351;50.812;12.872;2024-03-17T04:19:24;98546.50;;;1.61;100.00
5062;BME280;2351;50.812;12.872;2024-03-17T04:21:56;98544.63;;;1.64;100.00
5062;BME280;2351;50.812;12.872;2024-03-17T04:24:29;98542.78;;;1.67;100.00
5062;BME280;2351;50.812;12.872;2024-03-17T04:27:01;98542.91;;;1.63;100.00
5062;BME280;2351;50.812;12.872;2024-03-17T04:29:34;98550.53;;;1.68;100.00
5062;BME280;2351;50.812;12.872;2024-03-17T04:32:06;98544.41;;;1.69;100.00
5062;BME280;2351;50.812;12.872;2024-03-17T04:34:38;98549.63;;;1.69;100.00
5062;BME280;2351;50.812;12.872;2024-03-17T04:37:10;98552.25;;;1.69;100.00
5062;BME280;2351;50.812;12.872;2024-03-17T04:39:45;98542.78;;;1.67;100.00
5062;BME280;2351;50.812;12.872;2024-03-17T04:42:18;98545.47;;;1.65;100.00
5062;BME280;2351;50.812;12.872;2024-03-17T04:44:49;98546.38;;;1.64;100.00
5062;BME280;2351;50.812;12.872;2024-03-17T04:47:21;98546.56;;;1.59;100.00
5062;BME280;2351;50.812;12.872;2024-03-17T04:49:53;98555.28;;;1.58;100.00
5062;BME280;2351;50.812;12.872;2024-03-17T04:52:25;98561.50;;;1.56;100.00
5062;BME280;2351;50.812;12.872;2024-03-17T04:54:58;98566.00;;;1.52;100.00
5062;BME280;2351;50.812;12.872;2024-03-17T04:57:30;98557.38;;;1.50;100.00
5062;BME280;2351;50.812;12.872;2024-03-17T05:00:02;98568.75;;;1.47;100.00
5062;BME280;2351;50.812;12.872;2024-03-17T05:02:36;98577.50;;;1.46;100.00
5062;BME280;2351;50.812;12.872;2024-03-17T05:05:08;98567.91;;;1.47;100.00
5062;BME280;2351;50.812;12.872;2024-03-17T05:07:40;98574.88;;;1.46;100.00
5062;BME280;2351;50.812;12.872;2024-03-17T05:10:14;98575.69;;;1.48;100.00
5062;BME280;2351;50.812;12.872;2024-03-17T05:12:45;98575.69;;;1.48;100.00
5062;BME280;2351;50.812;12.872;2024-03-17T05:15:18;98569.63;;;1.48;100.00
5062;BME280;2351;50.812;12.872;2024-03-17T05:17:50;98575.69;;;1.48;100.00
5062;BME280;2351;50.812;12.872;2024-03-17T05:20:21;98577.25;;;1.53;100.00
5062;BME280;2351;50.812;12.872;2024-03-17T05:22:54;98578.06;;;1.55;100.00
5062;BME280;2351;50.812;12.872;2024-03-17T05:25:27;98577.16;;;1.56;100.00
5062;BME280;2351;50.812;12.872;2024-03-17T05:28:00;98579.69;;;1.57;100.00
5062;BME280;2351;50.812;12.872;2024-03-17T05:30:31;98577.88;;;1.59;100.00
5062;BME280;2351;50.812;12.872;2024-03-17T05:33:03;98583.94;;;1.60;100.00
5062;BME280;2351;50.812;12.872;2024-03-17T05:35:35;98585.66;;;1.61;100.00
5062;BME280;2351;50.812;12.872;2024-03-17T05:38:08;98592.50;;;1.63;100.00
5062;BME280;2351;50.812;12.872;2024-03-17T05:40:42;98590.75;;;1.64;100.00
5062;BME280;2351;50.812;12.872;2024-03-17T05:43:14;98594.13;;;1.66;100.00
5062;BME280;2351;50.812;12.872;2024-03-17T05:45:45;98594.91;;;1.68;100.00
5062;BME280;2351;50.812;12.872;2024-03-17T05:48:17;98601.78;;;1.71;100.00
5062;BME280;2351;50.812;12.872;2024-03-17T05:50:49;98601.69;;;1.74;100.00
5062;BME280;2351;50.812;12.872;2024-03-17T05:53:22;98602.41;;;1.77;100.00
5062;BME280;2351;50.812;12.872;2024-03-17T05:55:55;98601.41;;;1.80;100.00
5062;BME280;2351;50.812;12.872;2024-03-17T05:58:27;98608.28;;;1.83;100.00
5062;BME280;2351;50.812;12.872;2024-03-17T06:01:01;98609.91;;;1.85;100.00
5062;BME280;2351;50.812;12.872;2024-03-17T06:03:33;98606.28;;;1.89;100.00
5062;BME280;2351;50.812;12.872;2024-03-17T06:06:06;98608.81;;;1.91;100.00
5062;BME280;2351;50.812;12.872;2024-03-17T06:08:40;98611.25;;;1.95;100.00
5062;BME280;2351;50.812;12.872;2024-03-17T06:11:13;98601.59;;;1.98;100.00
5062;BME280;2351;50.812;12.872;2024-03-17T06:13:44;98610.16;;;2.01;100.00
5062;BME280;2351;50.812;12.872;2024-03-17T06:16:16;98603.03;;;2.05;100.00
5062;BME280;2351;50.812;12.872;2024-03-17T06:18:50;98600.31;;;2.08;100.00
5062;BME280;2351;50.812;12.872;2024-03-17T06:21:22;98599.19;;;2.14;100.00
5062;BME280;2351;50.812;12.872;2024-03-17T06:23:54;98600.78;;;2.18;100.00
5062;BME280;2351;50.812;12.872;2024-03-17T06:26:28;98610.97;;;2.24;100.00
5062;BME280;2351;50.812;12.872;2024-03-17T06:29:02;98611.66;;;2.29;100.00
5062;BME280;2351;50.812;12.872;2024-03-17T06:31:33;98621.03;;;2.33;100.00
5062;BME280;2351;50.812;12.872;2024-03-17T06:34:05;98619.94;;;2.39;100.00
5062;BME280;2351;50.812;12.872;2024-03-17T06:36:37;98620.53;;;2.46;100.00
5062;BME280;2351;50.812;12.872;2024-03-17T06:39:08;98627.25;;;2.51;100.00
5062;BME280;2351;50.812;12.872;2024-03-17T06:41:41;98632.28;;;2.56;100.00
5062;BME280;2351;50.812;12.872;2024-03-17T06:44:13;98631.19;;;2.62;100.00
5062;BME280;2351;50.812;12.872;2024-03-17T06:46:45;98633.47;;;2.69;100.00
5062;BME280;2351;50.812;12.872;2024-03-17T06:49:17;98625.63;;;2.69;100.00
5062;BME280;2351;50.812;12.872;2024-03-17T06:51:49;98637.59;;;2.75;100.00
5062;BME280;2351;50.812;12.872;2024-03-17T06:54:20;98637.38;;;2.80;100.00
5062;BME280;2351;50.812;12.872;2024-03-17T06:56:53;98631.09;;;2.84;100.00
5062;BME280;2351;50.812;12.872;2024-03-17T06:59:25;98634.38;;;2.89;100.00
5062;BME280;2351;50.812;12.872;2024-03-17T07:01:57;98640.25;;;2.94;100.00
5062;BME280;2351;50.812;12.872;2024-03-17T07:04:29;98644.41;;;2.98;100.00
5062;BME280;2351;50.812;12.872;2024-03-17T07:07:00;98642.41;;;3.05;100.00
5062;BME280;2351;50.812;12.872;2024-03-17T07:09:32;98646.56;;;3.09;100.00
5062;BME280;2351;50.812;12.872;2024-03-17T07:12:05;98642.84;;;3.15;100.00
5062;BME280;2351;50.812;12.872;2024-03-17T07:14:37;98643.41;;;3.22;100.00
5062;BME280;2351;50.812;12.872;2024-03-17T07:17:09;98649.22;;;3.28;100.00
5062;BME280;2351;50.812;12.872;2024-03-17T07:19:41;98655.75;;;3.39;100.00
5062;BME280;2351;50.812;12.872;2024-03-17T07:22:12;98650.94;;;3.49;100.00
5062;BME280;2351;50.812;12.872;2024-03-17T07:24:44;98652.13;;;3.60;100.00
5062;BME280;2351;50.812;12.872;2024-03-17T07:27:17;98648.88;;;3.74;100.00
5062;BME280;2351;50.812;12.872;2024-03-17T07:29:49;98652.66;;;3.86;100.00
5062;BME280;2351;50.812;12.872;2024-03-17T07:32:20;98657.19;;;4.02;100.00
5062;BME280;2351;50.812;12.872;2024-03-17T07:34:53;98659.22;;;4.14;100.00
5062;BME280;2351;50.812;12.872;2024-03-17T07:37:25;98653.59;;;4.22;100.00
5062;BME280;2351;50.812;12.872;2024-03-17T07:39:56;98661.41;;;4.24;100.00
5062;BME280;2351;50.812;12.872;2024-03-17T07:42:33;98654.63;;;4.37;100.00
5062;BME280;2351;50.812;12.872;2024-03-17T07:45:05;98662.19;;;4.43;100.00
5062;BME280;2351;50.812;12.872;2024-03-17T07:47:38;98665.72;;;4.42;100.00
5062;BME280;2351;50.812;12.872;2024-03-17T07:50:09;98658.50;;;4.47;100.00
5062;BME280;2351;50.812;12.872;2024-03-17T07:52:41;98660.19;;;4.48;100.00
5062;BME280;2351;50.812;12.872;2024-03-17T07:55:13;98663.41;;;4.53;100.00
5062;BME280;2351;50.812;12.872;2024-03-17T07:57:46;98659.72;;;4.58;100.00
5062;BME280;2351;50.812;12.872;2024-03-17T08:00:18;98665.44;;;4.66;100.00
5062;BME280;2351;50.812;12.872;2024-03-17T08:02:50;98665.19;;;4.71;100.00
5062;BME280;2351;50.812;12.872;2024-03-17T08:05:22;98659.41;;;4.81;100.00
5062;BME280;2351;50.812;12.872;2024-03-17T08:07:54;98654.31;;;4.96;100.00
5062;BME280;2351;50.812;12.872;2024-03-17T08:10:26;98654.34;;;5.12;100.00
5062;BME280;2351;50.812;12.872;2024-03-17T08:12:59;98659.13;;;5.21;100.00
5062;BME280;2351;50.812;12.872;2024-03-17T08:15:32;98647.44;;;5.27;100.00
5062;BME280;2351;50.812;12.872;2024-03-17T08:18:04;98648.72;;;5.36;100.00
5062;BME280;2351;50.812;12.872;2024-03-17T08:20:38;98644.59;;;5.48;100.00
5062;BME280;2351;50.812;12.872;2024-03-17T08:23:10;98650.88;;;5.61;100.00
5062;BME280;2351;50.812;12.872;2024-03-17T08:25:42;98653.44;;;5.79;100.00
5062;BME280;2351;50.812;12.872;2024-03-17T08:28:15;98651.22;;;6.03;100.00
5062;BME280;2351;50.812;12.872;2024-03-17T08:30:51;98642.41;;;6.20;100.00
5062;BME280;2351;50.812;12.872;2024-03-17T08:33:24;98644.50;;;6.29;100.00
5062;BME280;2351;50.812;12.872;2024-03-17T08:35:56;98643.03;;;6.40;100.00
5062;BME280;2351;50.812;12.872;2024-03-17T08:38:29;98638.75;;;6.53;100.00
5062;BME280;2351;50.812;12.872;2024-03-17T08:41:03;98632.44;;;6.72;100.00
5062;BME280;2351;50.812;12.872;2024-03-17T08:43:37;98626.03;;;6.76;100.00
5062;BME280;2351;50.812;12.872;2024-03-17T08:46:10;98617.41;;;6.88;100.00
5062;BME280;2351;50.812;12.872;2024-03-17T08:48:43;98617.31;;;6.90;100.00
5062;BME280;2351;50.812;12.872;2024-03-17T08:51:15;98619.28;;;7.30;100.00
5062;BME280;2351;50.812;12.872;2024-03-17T08:53:47;98614.41;;;7.38;100.00
5062;BME280;2351;50.812;12.872;2024-03-17T08:56:19;98612.72;;;7.37;100.00
5062;BME280;2351;50.812;12.872;2024-03-17T08:58:52;98611.28;;;7.46;100.00
5062;BME280;2351;50.812;12.872;2024-03-17T09:01:24;98607.09;;;7.71;100.00
5062;BME280;2351;50.812;12.872;2024-03-17T09:03:57;98607.81;;;8.14;100.00
5062;BME280;2351;50.812;12.872;2024-03-17T09:06:31;98594.41;;;8.58;100.00
5062;BME280;2351;50.812;12.872;2024-03-17T09:09:03;98593.38;;;8.99;100.00
5062;BME280;2351;50.812;12.872;2024-03-17T09:11:36;98584.59;;;9.38;100.00
5062;BME280;2351;50.812;12.872;2024-03-17T09:14:09;98579.53;;;9.59;98.49
5062;BME280;2351;50.812;12.872;2024-03-17T09:16:42;98585.09;;;9.30;89.35
5062;BME280;2351;50.812;12.872;2024-03-17T09:19:13;98582.47;;;9.30;92.78
5062;BME280;2351;50.812;12.872;2024-03-17T09:21:45;98583.53;;;9.27;91.55
5062;BME280;2351;50.812;12.872;2024-03-17T09:24:17;98582.59;;;9.15;89.35
5062;BME280;2351;50.812;12.872;2024-03-17T09:26:49;98590.44;;;9.04;85.35
5062;BME280;2351;50.812;12.872;2024-03-17T09:29:22;98581.28;;;9.34;87.69
5062;BME280;2351;50.812;12.872;2024-03-17T09:31:54;98578.59;;;9.84;80.32
5062;BME280;2351;50.812;12.872;2024-03-17T09:34:26;98575.81;;;10.34;74.27
5062;BME280;2351;50.812;12.872;2024-03-17T09:36:58;98574.50;;;10.76;71.60
5062;BME280;2351;50.812;12.872;2024-03-17T09:39:30;98571.75;;;11.00;74.72
5062;BME280;2351;50.812;12.872;2024-03-17T09:42:02;98578.03;;;11.10;65.98
5062;BME280;2351;50.812;12.872;2024-03-17T09:44:39;98566.56;;;10.87;55.41
5062;BME280;2351;50.812;12.872;2024-03-17T09:47:16;98576.28;;;10.28;59.08
5062;BME280;2351;50.812;12.872;2024-03-17T09:49:50;98573.38;;;9.34;57.82
5062;BME280;2351;50.812;12.872;2024-03-17T09:52:24;98585.13;;;8.52;60.21
5062;BME280;2351;50.812;12.872;2024-03-17T09:54:59;98582.56;;;8.38;61.26
5062;BME280;2351;50.812;12.872;2024-03-17T09:57:33;98582.25;;;8.02;62.12
5062;BME280;2351;50.812;12.872;2024-03-17T10:00:10;98587.03;;;7.82;62.18
5062;BME280;2351;50.812;12.872;2024-03-17T10:02:43;98582.47;;;7.57;61.21
5062;BME280;2351;50.812;12.872;2024-03-17T10:05:19;98583.09;;;7.75;64.62
5062;BME280;2351;50.812;12.872;2024-03-17T10:07:51;98579.00;;;8.11;65.42
5062;BME280;2351;50.812;12.872;2024-03-17T10:10:23;98584.75;;;8.44;65.05
5062;BME280;2351;50.812;12.872;2024-03-17T10:12:55;98576.06;;;8.16;60.07
5062;BME280;2351;50.812;12.872;2024-03-17T10:15:28;98577.22;;;8.12;62.26
5062;BME280;2351;50.812;12.872;2024-03-17T10:18:01;98576.34;;;8.52;63.82
5062;BME280;2351;50.812;12.872;2024-03-17T10:20:32;98573.13;;;8.87;63.35
5062;BME280;2351;50.812;12.872;2024-03-17T10:23:05;98578.81;;;8.94;62.11
5062;BME280;2351;50.812;12.872;2024-03-17T10:25:39;98572.16;;;9.01;61.18
5062;BME280;2351;50.812;12.872;2024-03-17T10:28:12;98565.56;;;9.32;61.86
5062;BME280;2351;50.812;12.872;2024-03-17T10:30:58;98569.72;;;9.85;61.53
5062;BME280;2351;50.812;12.872;2024-03-17T10:33:30;98564.56;;;9.84;55.93
5062;BME280;2351;50.812;12.872;2024-03-17T10:36:02;98560.63;;;10.25;56.62
5062;BME280;2351;50.812;12.872;2024-03-17T10:38:36;98555.22;;;10.51;57.01
5062;BME280;2351;50.812;12.872;2024-03-17T10:41:09;98552.72;;;10.83;57.40
5062;BME280;2351;50.812;12.872;2024-03-17T10:43:43;98546.72;;;11.27;58.25
5062;BME280;2351;50.812;12.872;2024-03-17T10:46:17;98545.22;;;11.45;55.47
5062;BME280;2351;50.812;12.872;2024-03-17T10:48:52;98547.19;;;10.98;48.62
5062;BME280;2351;50.812;12.872;2024-03-17T10:51:25;98551.25;;;9.48;51.34
5062;BME280;2351;50.812;12.872;2024-03-17T10:53:58;98545.75;;;9.14;51.70
5062;BME280;2351;50.812;12.872;2024-03-17T10:56:30;98554.41;;;9.03;53.01
5062;BME280;2351;50.812;12.872;2024-03-17T10:59:03;98542.19;;;8.63;53.40
5062;BME280;2351;50.812;12.872;2024-03-17T11:01:36;98553.47;;;8.65;53.91
5062;BME280;2351;50.812;12.872;2024-03-17T11:04:12;98546.59;;;9.01;53.91
5062;BME280;2351;50.812;12.872;2024-03-17T11:06:43;98551.31;;;9.22;54.38
5062;BME280;2351;50.812;12.872;2024-03-17T11:09:17;98543.31;;;9.48;54.88
5062;BME280;2351;50.812;12.872;2024-03-17T11:11:48;98537.38;;;9.57;54.03
5062;BME280;2351;50.812;12.872;2024-03-17T11:14:20;98535.81;;;9.42;52.64
5062;BME280;2351;50.812;12.872;2024-03-17T11:16:54;98533.16;;;9.55;53.14
5062;BME280;2351;50.812;12.872;2024-03-17T11:19:26;98536.00;;;10.00;54.90
5062;BME280;2351;50.812;12.872;2024-03-17T11:21:58;98533.50;;;10.34;54.82
5062;BME280;2351;50.812;12.872;2024-03-17T11:24:49;98527.31;;;10.58;52.39
5062;BME280;2351;50.812;12.872;2024-03-17T11:27:39;98523.94;;;10.67;52.69
5062;BME280;2351;50.812;12.872;2024-03-17T11:30:44;98520.94;;;10.95;51.28
5062;BME280;2351;50.812;12.872;2024-03-17T11:33:48;98520.88;;;10.38;50.37
5062;BME280;2351;50.812;12.872;2024-03-17T11:36:32;98523.22;;;10.54;52.93
5062;BME280;2351;50.812;12.872;2024-03-17T11:39:07;98519.63;;;10.19;49.92
5062;BME280;2351;50.812;12.872;2024-03-17T11:41:48;98521.25;;;9.12;53.22
5062;BME280;2351;50.812;12.872;2024-03-17T11:44:24;98526.78;;;8.70;53.10
5062;BME280;2351;50.812;12.872;2024-03-17T11:46:57;98522.66;;;8.66;54.02
5062;BME280;2351;50.812;12.872;2024-03-17T11:49:32;98522.69;;;8.25;54.49
5062;BME280;2351;50.812;12.872;2024-03-17T11:52:04;98514.81;;;8.38;55.02
5062;BME280;2351;50.812;12.872;2024-03-17T11:54:38;98513.78;;;8.67;55.64
5062;BME280;2351;50.812;12.872;2024-03-17T11:57:11;98521.53;;;9.07;56.51
5062;BME280;2351;50.812;12.872;2024-03-17T11:59:45;98515.78;;;9.63;57.33
5062;BME280;2351;50.812;12.872;2024-03-17T12:02:18;98516.81;;;10.09;56.67
5062;BME280;2351;50.812;12.872;2024-03-17T12:04:52;98514.41;;;10.53;55.95
5062;BME280;2351;50.812;12.872;2024-03-17T12:07:24;98519.28;;;10.82;55.19
5062;BME280;2351;50.812;12.872;2024-03-17T12:09:58;98521.22;;;10.92;52.92
5062;BME280;2351;50.812;12.872;2024-03-17T12:12:30;98510.00;;;10.99;53.41
5062;BME280;2351;50.812;12.872;2024-03-17T12:15:16;98502.63;;;11.14;53.15
5062;BME280;2351;50.812;12.872;2024-03-17T12:17:52;98493.44;;;11.41;53.13
5062;BME280;2351;50.812;12.872;2024-03-17T12:20:25;98487.00;;;11.55;52.27
5062;BME280;2351;50.812;12.872;2024-03-17T12:22:55;98480.03;;;11.87;53.24
5062;BME280;2351;50.812;12.872;2024-03-17T12:25:28;98472.91;;;12.20;52.58
5062;BME280;2351;50.812;12.872;2024-03-17T12:27:59;98477.25;;;12.21;51.59
5062;BME280;2351;50.812;12.872;2024-03-17T12:30:32;98463.94;;;12.42;51.29
5062;BME280;2351;50.812;12.872;2024-03-17T12:33:03;98473.53;;;12.33;48.88
5062;BME280;2351;50.812;12.872;2024-03-17T12:35:38;98475.47;;;12.31;47.79
5062;BME280;2351;50.812;12.872;2024-03-17T12:38:20;98475.75;;;11.74;45.17
5062;BME280;2351;50.812;12.872;2024-03-17T12:40:53;98474.78;;;11.97;47.70
5062;BME280;2351;50.812;12.872;2024-03-17T12:43:23;98467.47;;;11.89;46.37
5062;BME280;2351;50.812;12.872;2024-03-17T12:45:57;98477.44;;;11.97;47.29
5062;BME280;2351;50.812;12.872;2024-03-17T12:48:28;98469.28;;;12.21;47.76
5062;BME280;2351;50.812;12.872;2024-03-17T12:51:01;98470.00;;;12.23;46.63
5062;BME280;2351;50.812;12.872;2024-03-17T12:53:32;98465.06;;;12.18;46.84
5062;BME280;2351;50.812;12.872;2024-03-17T12:56:03;98470.50;;;12.17;45.49
5062;BME280;2351;50.812;12.872;2024-03-17T12:58:53;98475.84;;;11.40;44.86
5062;BME280;2351;50.812;12.872;2024-03-17T13:01:42;98469.56;;;10.86;47.12
5062;BME280;2351;50.812;12.872;2024-03-17T13:04:14;98468.25;;;10.69;47.92
5062;BME280;2351;50.812;12.872;2024-03-17T13:06:48;98462.16;;;11.24;49.05
5062;BME280;2351;50.812;12.872;2024-03-17T13:09:20;98458.81;;;11.87;48.36
5062;BME280;2351;50.812;12.872;2024-03-17T13:11:53;98447.00;;;12.33;48.54
5062;BME280;2351;50.812;12.872;2024-03-17T13:14:25;98451.38;;;12.44;47.72
5062;BME280;2351;50.812;12.872;2024-03-17T13:16:56;98444.34;;;12.33;46.87
5062;BME280;2351;50.812;12.872;2024-03-17T13:19:28;98446.28;;;12.31;46.54
5062;BME280;2351;50.812;12.872;2024-03-17T13:22:01;98447.16;;;11.57;45.75
5062;BME280;2351;50.812;12.872;2024-03-17T13:24:33;98438.63;;;11.96;46.29
5062;BME280;2351;50.812;12.872;2024-03-17T13:27:06;98441.06;;;11.66;46.52
5062;BME280;2351;50.812;12.872;2024-03-17T13:29:38;98439.13;;;11.68;47.32
5062;BME280;2351;50.812;12.872;2024-03-17T13:32:14;98425.75;;;12.02;47.54
5062;BME280;2351;50.812;12.872;2024-03-17T13:34:47;98429.19;;;12.45;47.72
5062;BME280;2351;50.812;12.872;2024-03-17T13:37:22;98429.84;;;12.38;46.45
5062;BME280;2351;50.812;12.872;2024-03-17T13:39:53;98426.47;;;12.35;46.40
5062;BME280;2351;50.812;12.872;2024-03-17T13:42:25;98427.66;;;12.43;46.66